Time;durP1;ratioP1;P1;durP2;ratioP2;P2;SDS_P1;SDS_P2;PMS_P1;PMS_P2;Temp;Humidity;BMP_temperature;BMP_pressure;BME280_temperature;BME280_humidity;BME280_pressure;Samples;Min_cycle;Max_cycle;Signal;HPM_P1;HPM_P2
2023/05/20 00:01:32;;;;;;;1999.90;999.90;;;24.70;80.70;;;;;;5070767;28;20464;-72
2023/05/20 00:03:59;;;;;;;1999.90;999.90;;;25.10;81.10;;;;;;5101036;28;20058;-72
2023/05/20 00:06:27;;;;;;;1999.90;999.90;;;25.30;79.50;;;;;;5090694;28;20058;-73
2023/05/20 00:08:54;;;;;;;1999.90;999.90;;;25.60;78.50;;;;;;5080958;28;20074;-72
2023/05/20 00:11:22;;;;;;;1999.90;999.90;;;25.70;78.00;;;;;;5092861;28;20044;-72
2023/05/20 00:13:49;;;;;;;1999.90;999.90;;;25.70;79.00;;;;;;5089413;28;20027;-71
2023/05/20 00:16:16;;;;;;;1999.90;999.90;;;26.10;78.30;;;;;;5065495;28;20051;-72
2023/05/20 00:18:45;;;;;;;1999.90;999.90;;;26.20;77.30;;;;;;5089759;28;20019;-71
2023/05/20 00:21:12;;;;;;;1999.90;999.90;;;26.20;77.10;;;;;;5083418;28;20490;-72
2023/05/20 00:23:40;;;;;;;1999.90;999.90;;;26.30;76.20;;;;;;5091733;28;20036;-70
2023/05/20 00:26:07;;;;;;;1999.90;999.90;;;26.30;77.20;;;;;;5092624;28;20111;-71
2023/05/20 00:28:34;;;;;;;1999.90;999.90;;;26.60;75.50;;;;;;5093560;28;20063;-72
2023/05/20 00:31:02;;;;;;;1999.90;999.90;;;26.50;76.80;;;;;;5089962;28;20032;-71
2023/05/20 00:33:29;;;;;;;1999.90;999.90;;;26.90;75.70;;;;;;5089711;28;20024;-72
2023/05/20 00:35:57;;;;;;;1999.90;999.90;;;27.00;76.10;;;;;;5086208;28;20113;-73
2023/05/20 00:38:24;;;;;;;1999.90;999.90;;;27.10;75.70;;;;;;5090397;28;20032;-72
2023/05/20 00:40:52;;;;;;;1999.90;999.90;;;27.60;74.60;;;;;;5078460;28;20683;-72
2023/05/20 00:43:19;;;;;;;1999.90;999.90;;;27.40;73.60;;;;;;5086267;28;20058;-73
2023/05/20 00:45:47;;;;;;;1999.90;999.90;;;26.50;73.70;;;;;;5088280;28;20039;-72
2023/05/20 00:48:15;;;;;;;1999.90;999.90;;;26.70;72.30;;;;;;5087923;28;20393;-73
2023/05/20 00:50:42;;;;;;;1999.90;999.90;;;26.80;72.20;;;;;;5085661;28;20114;-73
2023/05/20 00:53:10;;;;;;;1999.90;999.90;;;26.90;72.70;;;;;;5089598;28;20634;-73
2023/05/20 00:55:38;;;;;;;1999.90;999.90;;;27.10;73.30;;;;;;5085228;28;20032;-73
2023/05/20 00:58:06;;;;;;;1999.90;999.90;;;27.40;72.30;;;;;;5094370;28;20035;-71
2023/05/20 01:00:33;;;;;;;1999.90;999.90;;;27.70;72.30;;;;;;4975355;28;3098677;-71
2023/05/20 01:03:01;;;;;;;1999.90;999.90;;;27.90;70.20;;;;;;5088721;28;20059;-71
2023/05/20 01:05:28;;;;;;;1999.90;999.90;;;27.80;70.60;;;;;;5087127;28;20016;-71
2023/05/20 01:07:55;;;;;;;1999.90;999.90;;;27.80;69.80;;;;;;5106252;28;20069;-71
2023/05/20 01:10:26;;;;;;;1999.90;999.90;;;27.80;70.70;;;;;;5096561;28;20444;-71
2023/05/20 01:12:56;;;;;;;1999.90;999.90;;;28.00;71.30;;;;;;5096491;28;20473;-71
2023/05/20 01:15:26;;;;;;;1999.90;999.90;;;28.10;69.90;;;;;;5087265;28;20032;-72
2023/05/20 01:18:01;;;;;;;1999.90;999.90;;;27.70;70.00;;;;;;5094717;28;20484;-71
2023/05/20 01:20:31;;;;;;;1999.90;999.90;;;27.70;70.10;;;;;;5091406;28;20031;-72
2023/05/20 01:22:59;;;;;;;1999.90;999.90;;;27.90;70.00;;;;;;5095612;28;20028;-72
2023/05/20 01:25:26;;;;;;;1999.90;999.90;;;28.10;69.30;;;;;;5098369;28;20035;-71
2023/05/20 01:27:56;;;;;;;1999.90;999.90;;;28.20;69.60;;;;;;5099278;28;20039;-71
2023/05/20 01:30:29;;;;;;;1999.90;999.90;;;28.30;69.40;;;;;;5093837;28;20464;-71
2023/05/20 01:33:07;;;;;;;1999.90;999.90;;;28.40;69.70;;;;;;5098924;28;20022;-70
2023/05/20 01:35:35;;;;;;;1999.90;999.90;;;28.40;68.80;;;;;;5090372;28;20452;-70
2023/05/20 01:38:04;;;;;;;1999.90;999.90;;;28.00;68.50;;;;;;5096345;28;20069;-71
2023/05/20 01:40:33;;;;;;;1999.90;999.90;;;27.90;69.50;;;;;;5087854;28;20019;-71
2023/05/20 01:43:03;;;;;;;1999.90;999.90;;;27.80;67.60;;;;;;5093543;28;20038;-72
2023/05/20 01:45:31;;;;;;;1999.90;999.90;;;27.80;69.30;;;;;;5085240;28;20074;-72
2023/05/20 01:47:58;;;;;;;1999.90;999.90;;;28.00;69.60;;;;;;5089810;28;20024;-72
2023/05/20 01:50:26;;;;;;;1999.90;999.90;;;28.20;68.40;;;;;;5091446;28;20032;-71
2023/05/20 01:52:53;;;;;;;1999.90;999.90;;;28.10;69.20;;;;;;5097505;28;20088;-72
2023/05/20 01:55:21;;;;;;;1999.90;999.90;;;28.30;69.50;;;;;;5093952;28;20036;-72
2023/05/20 01:57:48;;;;;;;1999.90;999.90;;;28.40;68.40;;;;;;5100142;28;20032;-73
2023/05/20 02:00:16;;;;;;;1999.90;999.90;;;28.60;68.80;;;;;;5093583;28;20043;-72
2023/05/20 02:02:43;;;;;;;1999.90;999.90;;;28.70;68.30;;;;;;5093877;28;20497;-72
2023/05/20 02:05:10;;;;;;;1999.90;999.90;;;28.60;68.90;;;;;;5075901;28;20032;-71
2023/05/20 02:07:38;;;;;;;1999.90;999.90;;;28.40;68.80;;;;;;5098583;28;20068;-71
2023/05/20 02:10:06;;;;;;;1999.90;999.90;;;28.40;67.90;;;;;;5089307;28;20082;-72
2023/05/20 02:12:33;;;;;;;1999.90;999.90;;;28.40;68.50;;;;;;5090210;28;20572;-71
2023/05/20 02:15:01;;;;;;;1999.90;999.90;;;28.40;68.70;;;;;;5088402;28;20032;-71
2023/05/20 02:17:28;;;;;;;1999.90;999.90;;;28.40;69.20;;;;;;5085483;28;20070;-71
2023/05/20 02:19:56;;;;;;;1999.90;999.90;;;28.40;67.90;;;;;;5062995;28;20492;-71
2023/05/20 02:22:23;;;;;;;1999.90;999.90;;;28.10;68.70;;;;;;5081915;28;20024;-71
2023/05/20 02:24:50;;;;;;;1999.90;999.90;;;28.00;68.60;;;;;;5082910;28;20474;-72
2023/05/20 02:27:18;;;;;;;1999.90;999.90;;;27.90;68.80;;;;;;5083894;28;20052;-72
2023/05/20 02:29:45;;;;;;;1999.90;999.90;;;27.70;68.30;;;;;;5086654;28;20125;-72
2023/05/20 02:32:12;;;;;;;1999.90;999.90;;;27.20;68.40;;;;;;5086564;28;20098;-72
2023/05/20 02:34:40;;;;;;;1999.90;999.90;;;26.40;68.30;;;;;;5086435;28;20035;-72
2023/05/20 02:37:07;;;;;;;1999.90;999.90;;;25.10;70.30;;;;;;5085924;28;20028;-71
2023/05/20 02:39:34;;;;;;;1999.90;999.90;;;24.90;71.70;;;;;;5084305;28;20032;-71
2023/05/20 02:42:03;;;;;;;1999.90;999.90;;;25.10;72.30;;;;;;5090036;28;20027;-72
2023/05/20 02:44:30;;;;;;;1999.90;999.90;;;25.20;71.80;;;;;;5090452;28;20032;-72
2023/05/20 02:46:58;;;;;;;1999.90;999.90;;;24.80;71.40;;;;;;5086469;28;20024;-72
2023/05/20 02:49:25;;;;;;;1999.90;999.90;;;24.90;71.40;;;;;;5095558;28;20088;-72
2023/05/20 02:51:53;;;;;;;1999.90;999.90;;;24.70;72.30;;;;;;5088563;28;20042;-72
2023/05/20 02:54:20;;;;;;;1999.90;999.90;;;23.90;72.50;;;;;;5080660;28;20024;-73
2023/05/20 02:56:48;;;;;;;1999.90;999.90;;;23.70;73.20;;;;;;5093092;28;20115;-72
2023/05/20 02:59:15;;;;;;;1999.90;999.90;;;23.50;73.10;;;;;;5088606;28;20008;-72
2023/05/20 03:01:43;;;;;;;1999.90;999.90;;;23.60;73.50;;;;;;5087700;28;20058;-71
2023/05/20 03:04:11;;;;;;;1999.90;999.90;;;23.50;73.70;;;;;;5092894;28;20036;-72
2023/05/20 03:06:43;;;;;;;1999.90;999.90;;;23.40;73.70;;;;;;5087479;28;20113;-71
2023/05/20 03:09:10;;;;;;;1999.90;999.90;;;23.30;73.80;;;;;;5093067;28;20030;-72
2023/05/20 03:11:38;;;;;;;1999.90;999.90;;;23.60;74.20;;;;;;5092030;28;20047;-71
2023/05/20 03:14:05;;;;;;;1999.90;999.90;;;23.40;74.00;;;;;;5093324;28;20138;-72
2023/05/20 03:16:34;;;;;;;1999.90;999.90;;;23.60;73.70;;;;;;5089402;28;20032;-72
2023/05/20 03:19:01;;;;;;;1999.90;999.90;;;23.60;74.40;;;;;;5092220;28;20035;-71
2023/05/20 03:21:29;;;;;;;1999.90;999.90;;;23.50;73.50;;;;;;5084870;28;20032;-72
2023/05/20 03:23:56;;;;;;;1999.90;999.90;;;23.30;73.60;;;;;;5093073;28;20036;-72
2023/05/20 03:26:24;;;;;;;1999.90;999.90;;;23.10;74.50;;;;;;5092905;28;20016;-71
2023/05/20 03:28:51;;;;;;;1999.90;999.90;;;22.90;74.80;;;;;;5095678;28;20039;-72
2023/05/20 03:31:19;;;;;;;1999.90;999.90;;;22.70;75.80;;;;;;5084761;28;20025;-72
2023/05/20 03:33:47;;;;;;;1999.90;999.90;;;22.60;75.40;;;;;;5087921;28;20024;-71
2023/05/20 03:36:14;;;;;;;1999.90;999.90;;;22.40;75.10;;;;;;5092392;28;20036;-71
2023/05/20 03:38:41;;;;;;;1999.90;999.90;;;22.00;75.00;;;;;;5094824;28;20381;-71
2023/05/20 03:41:09;;;;;;;1999.90;999.90;;;21.70;75.60;;;;;;5088855;28;20032;-72
2023/05/20 03:43:36;;;;;;;1999.90;999.90;;;21.40;76.10;;;;;;5092943;28;20031;-72
2023/05/20 03:46:03;;;;;;;1999.90;999.90;;;21.10;76.20;;;;;;5090338;28;20043;-72
2023/05/20 03:48:31;;;;;;;1999.90;999.90;;;20.80;76.40;;;;;;5089527;28;20035;-72
2023/05/20 03:51:00;;;;;;;1999.90;999.90;;;20.60;77.30;;;;;;5068503;28;20073;-72
2023/05/20 03:53:28;;;;;;;1999.90;999.90;;;20.40;78.30;;;;;;5097542;28;20024;-73
2023/05/20 03:55:55;;;;;;;1999.90;999.90;;;20.30;77.60;;;;;;5093759;28;20136;-70
2023/05/20 03:58:24;;;;;;;1999.90;999.90;;;20.20;77.60;;;;;;5093076;28;20034;-72
2023/05/20 04:00:51;;;;;;;1999.90;999.90;;;20.10;78.20;;;;;;5086324;28;20044;-72
2023/05/20 04:03:18;;;;;;;1999.90;999.90;;;19.70;78.30;;;;;;5093852;28;20019;-70
2023/05/20 04:05:46;;;;;;;1999.90;999.90;;;19.60;78.60;;;;;;5095765;28;20032;-71
2023/05/20 04:08:13;;;;;;;1999.90;999.90;;;19.50;78.70;;;;;;5088810;28;20048;-71
2023/05/20 04:10:43;;;;;;;1999.90;999.90;;;19.60;79.00;;;;;;5085129;28;20040;-74
2023/05/20 04:13:11;;;;;;;1999.90;999.90;;;19.40;79.40;;;;;;5088561;28;20028;-71
2023/05/20 04:15:40;;;;;;;1999.90;999.90;;;19.30;79.40;;;;;;5088058;28;20035;-72
2023/05/20 04:18:07;;;;;;;1999.90;999.90;;;19.20;79.80;;;;;;5081563;28;20151;-72
2023/05/20 04:20:35;;;;;;;1999.90;999.90;;;19.20;80.70;;;;;;5093507;28;20030;-72
2023/05/20 04:23:03;;;;;;;1999.90;999.90;;;19.30;80.50;;;;;;5095746;28;20173;-72
2023/05/20 04:25:30;;;;;;;1999.90;999.90;;;19.50;80.40;;;;;;5099713;28;20028;-72
2023/05/20 04:27:58;;;;;;;1999.90;999.90;;;19.60;79.50;;;;;;5092832;28;20028;-72
2023/05/20 04:30:26;;;;;;;1999.90;999.90;;;19.70;79.90;;;;;;5088770;28;20114;-72
2023/05/20 04:32:54;;;;;;;1999.90;999.90;;;19.80;79.70;;;;;;5102147;28;20024;-71
2023/05/20 04:35:24;;;;;;;1999.90;999.90;;;19.80;79.10;;;;;;5087907;28;20039;-71
2023/05/20 04:37:53;;;;;;;1999.90;999.90;;;19.70;79.20;;;;;;5090178;28;20020;-71
2023/05/20 04:40:21;;;;;;;1999.90;999.90;;;19.60;79.80;;;;;;5092958;28;20066;-72
2023/05/20 04:42:53;;;;;;;1999.90;999.90;;;19.50;80.20;;;;;;5094602;28;20031;-71
2023/05/20 04:45:22;;;;;;;1999.90;999.90;;;19.50;80.50;;;;;;5095420;28;20367;-73
2023/05/20 04:47:49;;;;;;;1999.90;999.90;;;19.40;80.70;;;;;;5101333;28;20020;-72
2023/05/20 04:50:16;;;;;;;1999.90;999.90;;;19.30;80.60;;;;;;5095070;28;20031;-72
2023/05/20 04:52:46;;;;;;;1999.90;999.90;;;19.20;80.80;;;;;;5097983;28;20032;-71
2023/05/20 04:55:14;;;;;;;1999.90;999.90;;;19.10;80.90;;;;;;5090735;28;20047;-72
2023/05/20 04:57:42;;;;;;;1999.90;999.90;;;19.10;81.20;;;;;;5098912;28;20024;-72
2023/05/20 05:00:11;;;;;;;1999.90;999.90;;;19.10;81.90;;;;;;5095578;28;20054;-71
2023/05/20 05:02:38;;;;;;;1999.90;999.90;;;19.10;81.40;;;;;;5094627;28;20051;-71
2023/05/20 05:05:06;;;;;;;1999.90;999.90;;;19.10;81.50;;;;;;5087633;28;20454;-72
2023/05/20 05:07:34;;;;;;;1999.90;999.90;;;19.20;81.20;;;;;;5093351;28;20036;-71
2023/05/20 05:10:01;;;;;;;1999.90;999.90;;;19.20;80.60;;;;;;5091447;28;20541;-73
2023/05/20 05:12:28;;;;;;;1999.90;999.90;;;19.10;80.80;;;;;;5097102;28;20020;-73
2023/05/20 05:14:57;;;;;;;1999.90;999.90;;;19.00;81.10;;;;;;5091494;28;20101;-73
2023/05/20 05:17:25;;;;;;;1999.90;999.90;;;18.90;81.50;;;;;;5096711;28;20028;-73
2023/05/20 05:19:52;;;;;;;1999.90;999.90;;;18.80;81.30;;;;;;5092813;28;20470;-73
2023/05/20 05:22:19;;;;;;;1999.90;999.90;;;18.70;80.90;;;;;;5098670;28;20720;-71
2023/05/20 05:24:47;;;;;;;1999.90;999.90;;;18.60;80.50;;;;;;5099324;28;20052;-72
2023/05/20 05:27:15;;;;;;;1999.90;999.90;;;18.50;80.80;;;;;;5090423;28;20055;-72
2023/05/20 05:29:42;;;;;;;1999.90;999.90;;;18.40;80.80;;;;;;5069643;28;20066;-73
2023/05/20 05:32:09;;;;;;;1999.90;999.90;;;18.40;81.20;;;;;;5073616;28;20039;-71
2023/05/20 05:34:37;;;;;;;1999.90;999.90;;;18.30;81.80;;;;;;5091127;28;20119;-72
2023/05/20 05:37:05;;;;;;;1999.90;999.90;;;18.30;79.90;;;;;;5088364;28;20389;-72
2023/05/20 05:39:33;;;;;;;1999.90;999.90;;;18.30;79.30;;;;;;5089834;28;20111;-72
2023/05/20 05:42:00;;;;;;;1999.90;999.90;;;18.30;79.80;;;;;;5087922;28;20028;-72
2023/05/20 05:44:28;;;;;;;1999.90;999.90;;;18.30;79.50;;;;;;5088511;28;20039;-73
2023/05/20 05:46:55;;;;;;;1999.90;999.90;;;18.30;79.20;;;;;;5089387;28;20035;-72
2023/05/20 05:49:22;;;;;;;1999.90;999.90;;;18.40;79.90;;;;;;5087154;28;20569;-72
2023/05/20 05:51:51;;;;;;;1999.90;999.90;;;18.40;79.60;;;;;;5085071;28;20420;-73
2023/05/20 05:54:19;;;;;;;1999.90;999.90;;;18.40;79.40;;;;;;5088519;28;20032;-72
2023/05/20 05:56:47;;;;;;;1999.90;999.90;;;18.40;79.30;;;;;;5086427;28;20058;-72
2023/05/20 05:59:16;;;;;;;1999.90;999.90;;;18.40;78.70;;;;;;5088314;28;20032;-72
2023/05/20 06:01:43;;;;;;;1999.90;999.90;;;18.40;79.10;;;;;;5091877;28;20039;-72
2023/05/20 06:04:11;;;;;;;1999.90;999.90;;;18.40;79.30;;;;;;5108057;28;20473;-72
2023/05/20 06:06:38;;;;;;;1999.90;999.90;;;18.40;79.20;;;;;;5090451;28;20036;-72
2023/05/20 06:09:05;;;;;;;1999.90;999.90;;;18.30;79.00;;;;;;5088437;28;20026;-72
2023/05/20 06:11:33;;;;;;;1999.90;999.90;;;18.30;79.90;;;;;;5098024;28;20421;-72
2023/05/20 06:14:02;;;;;;;1999.90;999.90;;;18.30;79.40;;;;;;5103105;28;20019;-72
2023/05/20 06:16:29;;;;;;;1999.90;999.90;;;18.30;79.90;;;;;;5101429;28;20039;-72
2023/05/20 06:18:57;;;;;;;1999.90;999.90;;;18.30;80.30;;;;;;5093326;28;20594;-72
2023/05/20 06:21:24;;;;;;;1999.90;999.90;;;18.30;80.10;;;;;;5087571;28;20036;-73
2023/05/20 06:23:52;;;;;;;1999.90;999.90;;;18.20;80.50;;;;;;5103285;28;20031;-73
2023/05/20 06:26:19;;;;;;;1999.90;999.90;;;18.20;80.50;;;;;;5086636;28;20031;-72
2023/05/20 06:28:47;;;;;;;1999.90;999.90;;;18.10;79.80;;;;;;5099946;28;20032;-73
2023/05/20 06:31:14;;;;;;;1999.90;999.90;;;18.00;79.80;;;;;;5087180;28;20052;-73
2023/05/20 06:33:41;;;;;;;1999.90;999.90;;;17.90;80.30;;;;;;5098284;28;20031;-72
2023/05/20 06:36:09;;;;;;;1999.90;999.90;;;17.70;80.70;;;;;;5095870;28;21401;-73
2023/05/20 06:38:37;;;;;;;1999.90;999.90;;;17.50;81.60;;;;;;5099260;28;20089;-72
2023/05/20 06:41:04;;;;;;;1999.90;999.90;;;17.30;81.60;;;;;;5094783;28;20092;-71
2023/05/20 06:43:33;;;;;;;1999.90;999.90;;;17.10;81.80;;;;;;5093880;28;20023;-71
2023/05/20 06:46:00;;;;;;;1999.90;999.90;;;16.90;81.90;;;;;;5095048;28;20028;-71
2023/05/20 06:48:28;;;;;;;1999.90;999.90;;;16.70;82.30;;;;;;5092771;28;20032;-73
2023/05/20 06:50:55;;;;;;;1999.90;999.90;;;16.60;82.60;;;;;;5087668;28;20039;-70
2023/05/20 06:53:23;;;;;;;1999.90;999.90;;;16.40;83.00;;;;;;5094321;28;20038;-71
2023/05/20 06:55:51;;;;;;;1999.90;999.90;;;16.30;83.20;;;;;;5088975;28;20030;-71
2023/05/20 06:58:18;;;;;;;1999.90;999.90;;;16.20;83.70;;;;;;5092417;28;20074;-72
2023/05/20 07:00:47;;;;;;;1999.90;999.90;;;16.00;83.50;;;;;;5088403;28;20481;-71
2023/05/20 07:03:14;;;;;;;1999.90;999.90;;;15.90;83.70;;;;;;5102009;28;20027;-71
2023/05/20 07:05:42;;;;;;;1999.90;999.90;;;15.90;83.60;;;;;;5091425;28;20182;-73
2023/05/20 07:08:10;;;;;;;1999.90;999.90;;;15.80;84.50;;;;;;5094659;28;20133;-72
2023/05/20 07:10:37;;;;;;;1999.90;999.90;;;15.70;84.40;;;;;;5083658;28;20078;-71
2023/05/20 07:13:05;;;;;;;1999.90;999.90;;;15.60;84.80;;;;;;5088866;28;20086;-71
2023/05/20 07:15:32;;;;;;;1999.90;999.90;;;15.50;85.10;;;;;;5074091;28;20024;-72
2023/05/20 07:17:59;;;;;;;1999.90;999.90;;;15.40;85.60;;;;;;5085325;28;20035;-70
2023/05/20 07:20:27;;;;;;;1999.90;999.90;;;15.30;86.10;;;;;;5081869;28;20031;-72
2023/05/20 07:22:54;;;;;;;1999.90;999.90;;;15.20;85.80;;;;;;5084169;28;20398;-70
2023/05/20 07:25:21;;;;;;;1999.90;999.90;;;15.30;85.80;;;;;;5086889;28;20024;-72
2023/05/20 07:27:49;;;;;;;1999.90;999.90;;;15.30;85.40;;;;;;5089557;28;20085;-73
2023/05/20 07:30:17;;;;;;;1999.90;999.90;;;15.20;85.60;;;;;;5082950;28;20029;-72
2023/05/20 07:32:44;;;;;;;1999.90;999.90;;;15.20;86.20;;;;;;5084114;28;20066;-71
2023/05/20 07:35:11;;;;;;;1999.90;999.90;;;15.10;86.00;;;;;;5083689;28;20111;-70
2023/05/20 07:37:38;;;;;;;1999.90;999.90;;;15.10;86.50;;;;;;5093090;28;20525;-70
2023/05/20 07:40:07;;;;;;;1999.90;999.90;;;15.00;86.90;;;;;;5086632;28;20055;-71
2023/05/20 07:42:35;;;;;;;1999.90;999.90;;;14.90;87.20;;;;;;5092876;28;20024;-72
2023/05/20 07:45:02;;;;;;;1999.90;999.90;;;14.80;87.40;;;;;;5094529;28;20028;-71
2023/05/20 07:47:31;;;;;;;1999.90;999.90;;;14.70;87.80;;;;;;5101426;28;20020;-70
2023/05/20 07:49:59;;;;;;;1999.90;999.90;;;14.60;88.00;;;;;;5091564;28;20056;-71
2023/05/20 07:52:27;;;;;;;1999.90;999.90;;;14.60;88.40;;;;;;5091731;28;20020;-70
2023/05/20 07:54:54;;;;;;;1999.90;999.90;;;14.50;89.00;;;;;;5086857;28;20032;-70
2023/05/20 07:57:21;;;;;;;1999.90;999.90;;;14.40;89.50;;;;;;5096515;28;20126;-72
2023/05/20 07:59:49;;;;;;;1999.90;999.90;;;14.20;90.20;;;;;;5091811;28;20040;-71
2023/05/20 08:02:17;;;;;;;1999.90;999.90;;;14.10;90.60;;;;;;5098518;28;20032;-71
2023/05/20 08:04:44;;;;;;;1999.90;999.90;;;14.00;91.00;;;;;;5086275;28;20033;-71
2023/05/20 08:07:12;;;;;;;1999.90;999.90;;;13.90;91.20;;;;;;5095709;28;20490;-72
2023/05/20 08:09:39;;;;;;;1999.90;999.90;;;13.80;91.50;;;;;;5094090;28;20077;-71
2023/05/20 08:12:07;;;;;;;1999.90;999.90;;;13.60;91.90;;;;;;5095632;28;20028;-73
2023/05/20 08:14:39;;;;;;;1999.90;999.90;;;13.60;92.00;;;;;;5073925;28;20119;-73
2023/05/20 08:17:09;;;;;;;1999.90;999.90;;;13.40;92.10;;;;;;5089185;28;20028;-72
2023/05/20 08:19:37;;;;;;;1999.90;999.90;;;13.30;92.40;;;;;;5092990;28;20747;-71
2023/05/20 08:22:05;;;;;;;1999.90;999.90;;;13.30;92.60;;;;;;5093903;28;20037;-72
2023/05/20 08:24:32;;;;;;;1999.90;999.90;;;13.20;92.60;;;;;;5092072;28;20051;-73
2023/05/20 08:27:00;;;;;;;1999.90;999.90;;;13.20;93.00;;;;;;5093709;28;20076;-75
2023/05/20 08:29:27;;;;;;;1999.90;999.90;;;13.00;93.00;;;;;;5090860;28;20043;-74
2023/05/20 08:31:55;;;;;;;1999.90;999.90;;;13.00;93.30;;;;;;5097206;28;20015;-74
2023/05/20 08:34:22;;;;;;;1999.90;999.90;;;12.80;93.60;;;;;;5092604;28;20043;-72
2023/05/20 08:36:49;;;;;;;1999.90;999.90;;;12.80;94.10;;;;;;5090003;28;20032;-71
2023/05/20 08:39:16;;;;;;;1999.90;999.90;;;12.70;94.40;;;;;;5093273;28;20035;-72
2023/05/20 08:41:46;;;;;;;1999.90;999.90;;;12.60;94.70;;;;;;5091961;28;20040;-71
2023/05/20 08:44:13;;;;;;;1999.90;999.90;;;12.50;94.80;;;;;;5098876;28;20031;-72
2023/05/20 08:46:42;;;;;;;1999.90;999.90;;;12.50;94.90;;;;;;5095566;28;20024;-74
2023/05/20 08:49:10;;;;;;;1999.90;999.90;;;12.60;94.50;;;;;;5080658;28;20033;-71
2023/05/20 08:51:38;;;;;;;1999.90;999.90;;;12.70;94.40;;;;;;5099556;28;20180;-71
2023/05/20 08:54:08;;;;;;;1999.90;999.90;;;12.70;94.30;;;;;;5102879;28;20024;-71
2023/05/20 08:56:37;;;;;;;1999.90;999.90;;;12.60;94.30;;;;;;5100517;28;20040;-72
2023/05/20 08:59:05;;;;;;;1999.90;999.90;;;12.70;94.00;;;;;;5095709;28;20057;-71
2023/05/20 09:01:35;;;;;;;1999.90;999.90;;;12.80;93.90;;;;;;5094957;28;20413;-72
2023/05/20 09:04:03;;;;;;;1999.90;999.90;;;12.90;93.90;;;;;;5095998;28;20110;-71
2023/05/20 09:06:41;;;;;;;1999.90;999.90;;;12.80;93.70;;;;;;5094231;28;20043;-71
2023/05/20 09:09:11;;;;;;;1999.90;999.90;;;12.80;93.90;;;;;;5078107;28;20075;-71
2023/05/20 09:11:42;;;;;;;1999.90;999.90;;;12.90;93.80;;;;;;5094244;28;20076;-71
2023/05/20 09:14:09;;;;;;;1999.90;999.90;;;13.00;93.50;;;;;;5088512;28;20144;-71
2023/05/20 09:16:38;;;;;;;1999.90;999.90;;;12.90;93.70;;;;;;5088620;28;20070;-71
2023/05/20 09:19:08;;;;;;;1999.90;999.90;;;12.80;94.30;;;;;;5094822;28;20076;-71
2023/05/20 09:21:37;;;;;;;1999.90;999.90;;;12.60;94.70;;;;;;5084029;28;20028;-71
2023/05/20 09:24:05;;;;;;;1999.90;999.90;;;12.50;94.90;;;;;;5092233;28;20144;-72
2023/05/20 09:26:32;;;;;;;1999.90;999.90;;;12.50;95.50;;;;;;5084380;28;20462;-70
2023/05/20 09:29:00;;;;;;;1999.90;999.90;;;12.30;95.50;;;;;;5085216;28;20748;-71
2023/05/20 09:31:32;;;;;;;1999.90;999.90;;;12.30;95.70;;;;;;5070745;28;20614;-72
2023/05/20 09:34:02;;;;;;;1999.90;999.90;;;12.10;96.10;;;;;;5097261;28;20032;-70
2023/05/20 09:36:33;;;;;;;1999.90;999.90;;;12.10;96.20;;;;;;5089656;28;20024;-72
2023/05/20 09:39:04;;;;;;;1999.90;999.90;;;12.00;96.30;;;;;;5093607;28;20031;-71
2023/05/20 09:41:38;;;;;;;1999.90;999.90;;;12.00;96.60;;;;;;5090924;28;20118;-72
2023/05/20 09:44:06;;;;;;;1999.90;999.90;;;11.90;97.10;;;;;;5094698;28;20059;-72
2023/05/20 09:46:35;;;;;;;1999.90;999.90;;;11.80;97.80;;;;;;5090982;28;20040;-72
2023/05/20 09:49:07;;;;;;;1999.90;999.90;;;11.70;97.90;;;;;;5088927;28;20068;-72
2023/05/20 09:51:35;;;;;;;1999.90;999.90;;;11.60;98.10;;;;;;5089133;28;20028;-71
2023/05/20 09:54:08;;;;;;;1999.90;999.90;;;11.50;98.50;;;;;;5095028;28;20020;-71
2023/05/20 09:56:37;;;;;;;1999.90;999.90;;;11.40;98.60;;;;;;5093867;28;20023;-71
2023/05/20 09:59:06;;;;;;;1999.90;999.90;;;11.30;99.00;;;;;;5089851;28;20031;-71
2023/05/20 10:01:33;;;;;;;1999.90;999.90;;;11.20;99.30;;;;;;5090747;28;20048;-71
2023/05/20 10:04:01;;;;;;;1999.90;999.90;;;11.10;99.70;;;;;;5083367;28;20036;-73
2023/05/20 10:06:40;;;;;;;1999.90;999.90;;;11.00;99.90;;;;;;5088557;28;20024;-73
2023/05/20 10:09:11;;;;;;;1999.90;999.90;;;11.00;99.90;;;;;;5086896;28;20035;-73
2023/05/20 10:11:58;;;;;;;1999.90;999.90;;;11.00;99.90;;;;;;5087937;28;20042;-73
2023/05/20 10:14:38;;;;;;;1999.90;999.90;;;11.00;99.90;;;;;;5092267;28;20024;-72
2023/05/20 10:17:39;;;;;;;1999.90;999.90;;;11.00;99.90;;;;;;5096162;28;20686;-72
2023/05/20 10:20:11;;;;;;;1999.90;999.90;;;11.00;99.90;;;;;;5093246;28;20031;-71
2023/05/20 10:22:44;;;;;;;1999.90;999.90;;;10.90;99.90;;;;;;5097447;28;20036;-70
2023/05/20 10:25:28;;;;;;;1999.90;999.90;;;10.80;99.90;;;;;;5087885;28;20028;-71
2023/05/20 10:28:08;;;;;;;1999.90;999.90;;;10.80;99.90;;;;;;5097773;28;20016;-71
2023/05/20 10:30:36;;;;;;;1999.90;999.90;;;10.70;99.90;;;;;;5090575;28;20027;-72
2023/05/20 10:33:06;;;;;;;1999.90;999.90;;;10.70;99.90;;;;;;5099756;28;20026;-73
2023/05/20 10:35:33;;;;;;;1999.90;999.90;;;10.70;99.90;;;;;;5087818;28;20040;-72
2023/05/20 10:38:13;;;;;;;1999.90;999.90;;;10.60;99.90;;;;;;5095926;28;20552;-72
2023/05/20 10:40:40;;;;;;;1999.90;999.90;;;10.60;99.90;;;;;;5092050;28;20039;-71
2023/05/20 10:43:13;;;;;;;1999.90;999.90;;;10.50;99.90;;;;;;5096501;28;20488;-73
2023/05/20 10:45:56;;;;;;;1999.90;999.90;;;10.40;99.90;;;;;;5091477;28;20047;-70
2023/05/20 10:48:31;;;;;;;1999.90;999.90;;;10.30;99.90;;;;;;5069330;28;20032;-72
2023/05/20 10:51:03;;;;;;;1999.90;999.90;;;10.30;99.90;;;;;;5090799;28;20045;-71
2023/05/20 10:53:43;;;;;;;1999.90;999.90;;;10.20;99.90;;;;;;5097972;28;20035;-71
2023/05/20 10:56:22;;;;;;;1999.90;999.90;;;10.20;99.90;;;;;;5086405;28;20130;-71
2023/05/20 10:58:50;;;;;;;1999.90;999.90;;;10.30;99.90;;;;;;5090784;28;20099;-70
2023/05/20 11:01:25;;;;;;;1999.90;999.90;;;10.30;99.90;;;;;;5093403;28;20051;-72
2023/05/20 11:03:56;;;;;;;1999.90;999.90;;;10.30;99.90;;;;;;5089159;28;20020;-71
2023/05/20 11:06:27;;;;;;;1999.90;999.90;;;10.30;99.90;;;;;;5088307;28;20486;-71
2023/05/20 11:08:55;;;;;;;1999.90;999.90;;;10.20;99.90;;;;;;5089058;28;20665;-70
2023/05/20 11:11:22;;;;;;;1999.90;999.90;;;10.10;99.90;;;;;;5084171;28;20087;-72
2023/05/20 11:13:53;;;;;;;1999.90;999.90;;;10.10;99.90;;;;;;5094206;28;20024;-71
2023/05/20 11:16:23;;;;;;;1999.90;999.90;;;10.00;99.90;;;;;;5085932;28;20077;-71
2023/05/20 11:18:50;;;;;;;1999.90;999.90;;;9.90;99.90;;;;;;5092664;28;20036;-72
2023/05/20 11:21:19;;;;;;;1999.90;999.90;;;9.90;99.90;;;;;;5092417;28;20569;-72
2023/05/20 11:23:46;;;;;;;1999.90;999.90;;;9.90;99.90;;;;;;5101404;28;20038;-72
2023/05/20 11:26:13;;;;;;;1999.90;999.90;;;9.80;99.90;;;;;;5091677;28;20028;-72
2023/05/20 11:28:41;;;;;;;1999.90;999.90;;;9.80;99.90;;;;;;5094530;28;20021;-72
2023/05/20 11:31:09;;;;;;;1999.90;999.90;;;9.80;99.90;;;;;;5092553;28;20533;-72
2023/05/20 11:33:40;;;;;;;1999.90;999.90;;;9.90;99.90;;;;;;5095642;28;20032;-72
2023/05/20 11:36:12;;;;;;;1999.90;999.90;;;9.90;99.90;;;;;;5087419;28;20110;-71
2023/05/20 11:38:41;;;;;;;1999.90;999.90;;;10.00;99.90;;;;;;5097048;28;20053;-73
2023/05/20 11:41:08;;;;;;;1999.90;999.90;;;10.00;99.90;;;;;;5096104;28;20032;-72
2023/05/20 11:43:36;;;;;;;1999.90;999.90;;;10.10;99.90;;;;;;5097050;28;20020;-72
2023/05/20 11:46:05;;;;;;;1999.90;999.90;;;10.10;99.90;;;;;;5094936;28;20031;-72
2023/05/20 11:48:33;;;;;;;1999.90;999.90;;;10.10;99.90;;;;;;5100093;28;20020;-72
2023/05/20 11:51:00;;;;;;;1999.90;999.90;;;10.20;99.90;;;;;;5090529;28;20039;-72
2023/05/20 11:53:28;;;;;;;1999.90;999.90;;;10.20;99.90;;;;;;5088798;28;20082;-73
2023/05/20 11:56:01;;;;;;;1999.90;999.90;;;10.10;99.90;;;;;;5085884;28;20028;-73
2023/05/20 11:58:30;;;;;;;1999.90;999.90;;;10.00;99.90;;;;;;5097873;28;20046;-74
2023/05/20 12:00:58;;;;;;;1999.90;999.90;;;10.00;99.90;;;;;;5090496;28;20127;-73
2023/05/20 12:03:26;;;;;;;1999.90;999.90;;;9.90;99.90;;;;;;5093349;28;20039;-73
2023/05/20 12:05:53;;;;;;;1999.90;999.90;;;9.80;99.90;;;;;;5085664;28;20027;-72